sensor_id;sensor_type;location;lat;lon;timestamp;pressure;altitude;pressure_sealevel;temperature;humidity
30682;BME280;17439;48.092;11.842;2023-05-23T00:01:45;95070.81;;;19.54;52.48
30682;BME280;17439;48.092;11.842;2023-05-23T00:04:12;95076.69;;;19.53;52.58
30682;BME280;17439;48.092;11.842;2023-05-23T00:06:38;95070.41;;;19.52;52.18
30682;BME280;17439;48.092;11.842;2023-05-23T00:09:05;95065.66;;;19.49;52.15
30682;BME280;17439;48.092;11.842;2023-05-23T00:11:32;95065.63;;;19.46;52.33
30682;BME280;17439;48.092;11.842;2023-05-23T00:13:59;95065.22;;;19.44;52.60
30682;BME280;17439;48.092;11.842;2023-05-23T00:16:25;95078.91;;;19.40;52.43
30682;BME280;17439;48.092;11.842;2023-05-23T00:18:52;95084.00;;;19.38;52.58
30682;BME280;17439;48.092;11.842;2023-05-23T00:21:19;95082.00;;;19.35;53.07
30682;BME280;17439;48.092;11.842;2023-05-23T00:23:45;95083.16;;;19.34;52.34
30682;BME280;17439;48.092;11.842;2023-05-23T00:26:12;95074.50;;;19.28;52.80
30682;BME280;17439;48.092;11.842;2023-05-23T00:28:44;95084.66;;;19.28;53.04
30682;BME280;17439;48.092;11.842;2023-05-23T00:31:11;95088.16;;;19.25;52.98
30682;BME280;17439;48.092;11.842;2023-05-23T00:33:37;95083.41;;;19.21;53.29
30682;BME280;17439;48.092;11.842;2023-05-23T00:36:04;95086.53;;;19.20;53.13
30682;BME280;17439;48.092;11.842;2023-05-23T00:38:31;95086.94;;;19.18;53.13
30682;BME280;17439;48.092;11.842;2023-05-23T00:40:58;95086.50;;;19.16;53.17
30682;BME280;17439;48.092;11.842;2023-05-23T00:43:26;95088.47;;;19.16;53.31
30682;BME280;17439;48.092;11.842;2023-05-23T00:45:52;95085.31;;;19.14;53.14
30682;BME280;17439;48.092;11.842;2023-05-23T00:48:19;95088.06;;;19.14;53.25
30682;BME280;17439;48.092;11.842;2023-05-23T00:50:46;95083.69;;;19.09;53.92
30682;BME280;17439;48.092;11.842;2023-05-23T00:53:13;95097.06;;;19.11;53.76
30682;BME280;17439;48.092;11.842;2023-05-23T00:55:40;95092.34;;;19.11;53.59
30682;BME280;17439;48.092;11.842;2023-05-23T00:58:07;95099.06;;;19.14;53.59
30682;BME280;17439;48.092;11.842;2023-05-23T01:00:34;95090.00;;;19.13;53.47
30682;BME280;17439;48.092;11.842;2023-05-23T01:03:01;95092.81;;;19.17;53.38
30682;BME280;17439;48.092;11.842;2023-05-23T01:05:28;95090.47;;;19.19;53.27
30682;BME280;17439;48.092;11.842;2023-05-23T01:07:55;95097.97;;;19.22;53.24
30682;BME280;17439;48.092;11.842;2023-05-23T01:10:26;95093.25;;;19.23;54.05
30682;BME280;17439;48.092;11.842;2023-05-23T01:15:52;95100.78;;;19.29;54.53
30682;BME280;17439;48.092;11.842;2023-05-23T01:18:28;95092.59;;;19.33;54.37
30682;BME280;17439;48.092;11.842;2023-05-23T01:21:06;95096.53;;;19.35;54.16
30682;BME280;17439;48.092;11.842;2023-05-23T01:26:56;95100.91;;;19.40;54.25
30682;BME280;17439;48.092;11.842;2023-05-23T01:29:33;95107.25;;;19.44;53.55
30682;BME280;17439;48.092;11.842;2023-05-23T01:32:04;95100.56;;;19.45;53.55
30682;BME280;17439;48.092;11.842;2023-05-23T01:34:34;95107.66;;;19.46;53.69
30682;BME280;17439;48.092;11.842;2023-05-23T01:37:07;95111.63;;;19.49;53.45
30682;BME280;17439;48.092;11.842;2023-05-23T01:39:35;95101.41;;;19.49;52.90
30682;BME280;17439;48.092;11.842;2023-05-23T01:42:03;95103.00;;;19.50;53.02
30682;BME280;17439;48.092;11.842;2023-05-23T01:44:32;95110.47;;;19.53;52.81
30682;BME280;17439;48.092;11.842;2023-05-23T01:47:01;95108.91;;;19.52;52.88
30682;BME280;17439;48.092;11.842;2023-05-23T01:49:29;95104.19;;;19.53;52.82
30682;BME280;17439;48.092;11.842;2023-05-23T01:51:58;95110.47;;;19.53;52.67
30682;BME280;17439;48.092;11.842;2023-05-23T01:54:28;95103.81;;;19.54;52.89
30682;BME280;17439;48.092;11.842;2023-05-23T01:56:58;95112.06;;;19.54;53.11
30682;BME280;17439;48.092;11.842;2023-05-23T01:59:26;95113.66;;;19.55;52.67
30682;BME280;17439;48.092;11.842;2023-05-23T02:01:55;95112.06;;;19.54;52.67
30682;BME280;17439;48.092;11.842;2023-05-23T02:04:21;95111.28;;;19.54;52.77
30682;BME280;17439;48.092;11.842;2023-05-23T02:06:48;95124.63;;;19.55;52.57
30682;BME280;17439;48.092;11.842;2023-05-23T02:09:15;95124.25;;;19.57;52.89
30682;BME280;17439;48.092;11.842;2023-05-23T02:11:43;95120.72;;;19.56;52.66
30682;BME280;17439;48.092;11.842;2023-05-23T02:14:10;95116.81;;;19.57;52.78
30682;BME280;17439;48.092;11.842;2023-05-23T02:16:36;95119.13;;;19.55;52.80
30682;BME280;17439;48.092;11.842;2023-05-23T02:19:03;95124.25;;;19.57;52.66
30682;BME280;17439;48.092;11.842;2023-05-23T02:21:30;95134.44;;;19.56;52.78
30682;BME280;17439;48.092;11.842;2023-05-23T02:24:01;95130.91;;;19.56;52.88
30682;BME280;17439;48.092;11.842;2023-05-23T02:26:29;95145.41;;;19.53;53.16
30682;BME280;17439;48.092;11.842;2023-05-23T02:28:55;95145.41;;;19.53;53.35
30682;BME280;17439;48.092;11.842;2023-05-23T02:31:23;95145.00;;;19.51;53.12
30682;BME280;17439;48.092;11.842;2023-05-23T02:33:50;95141.47;;;19.50;53.02
30682;BME280;17439;48.092;11.842;2023-05-23T02:36:17;95148.16;;;19.53;53.41
30682;BME280;17439;48.092;11.842;2023-05-23T02:38:43;95137.94;;;19.53;53.69
30682;BME280;17439;48.092;11.842;2023-05-23T02:41:11;95148.16;;;19.53;55.26
30682;BME280;17439;48.092;11.842;2023-05-23T02:43:37;95143.44;;;19.53;55.28
30682;BME280;17439;48.092;11.842;2023-05-23T02:46:04;95147.00;;;19.54;55.54
30682;BME280;17439;48.092;11.842;2023-05-23T02:48:31;95152.09;;;19.52;56.33
30682;BME280;17439;48.092;11.842;2023-05-23T02:50:58;95152.84;;;19.49;56.07
30682;BME280;17439;48.092;11.842;2023-05-23T02:53:25;95154.38;;;19.46;56.75
30682;BME280;17439;48.092;11.842;2023-05-23T02:55:52;95153.53;;;19.42;56.84
30682;BME280;17439;48.092;11.842;2023-05-23T02:58:19;95156.66;;;19.40;56.18
30682;BME280;17439;48.092;11.842;2023-05-23T03:00:46;95154.66;;;19.37;55.98
30682;BME280;17439;48.092;11.842;2023-05-23T03:03:12;95154.25;;;19.35;56.05
30682;BME280;17439;48.092;11.842;2023-05-23T03:05:39;95149.09;;;19.30;55.83
30682;BME280;17439;48.092;11.842;2023-05-23T03:08:06;95151.81;;;19.27;56.01
30682;BME280;17439;48.092;11.842;2023-05-23T03:10:33;95146.25;;;19.23;56.10
30682;BME280;17439;48.092;11.842;2023-05-23T03:12:59;95145.81;;;19.17;55.78
30682;BME280;17439;48.092;11.842;2023-05-23T03:15:26;95144.94;;;19.13;56.35
30682;BME280;17439;48.092;11.842;2023-05-23T03:17:53;95137.81;;;19.09;56.39
30682;BME280;17439;48.092;11.842;2023-05-23T03:20:20;95140.53;;;19.05;56.11
30682;BME280;17439;48.092;11.842;2023-05-23T03:22:47;95141.66;;;19.00;56.21
30682;BME280;17439;48.092;11.842;2023-05-23T03:25:14;95136.50;;;18.95;56.21
30682;BME280;17439;48.092;11.842;2023-05-23T03:27:44;95144.69;;;18.92;56.45
30682;BME280;17439;48.092;11.842;2023-05-23T03:30:11;95145.00;;;18.87;56.32
30682;BME280;17439;48.092;11.842;2023-05-23T03:32:38;95144.88;;;18.79;57.33
30682;BME280;17439;48.092;11.842;2023-05-23T03:35:05;95148.38;;;18.76;57.54
30682;BME280;17439;48.092;11.842;2023-05-23T03:37:32;95159.22;;;18.69;59.34
30682;BME280;17439;48.092;11.842;2023-05-23T03:39:59;95156.88;;;18.67;58.40
30682;BME280;17439;48.092;11.842;2023-05-23T03:42:27;95155.66;;;18.65;59.11
30682;BME280;17439;48.092;11.842;2023-05-23T03:44:54;95165.84;;;18.64;58.54
30682;BME280;17439;48.092;11.842;2023-05-23T03:47:22;95168.97;;;18.63;58.38
30682;BME280;17439;48.092;11.842;2023-05-23T03:49:49;95171.28;;;18.61;58.61
30682;BME280;17439;48.092;11.842;2023-05-23T03:52:16;95169.72;;;18.60;59.14
30682;BME280;17439;48.092;11.842;2023-05-23T03:54:43;95173.59;;;18.59;59.17
30682;BME280;17439;48.092;11.842;2023-05-23T03:57:11;95165.38;;;18.59;59.42
30682;BME280;17439;48.092;11.842;2023-05-23T03:59:38;95178.31;;;18.58;59.68
30682;BME280;17439;48.092;11.842;2023-05-23T04:02:08;95173.59;;;18.59;59.42
30682;BME280;17439;48.092;11.842;2023-05-23T04:04:35;95174.84;;;18.61;59.44
30682;BME280;17439;48.092;11.842;2023-05-23T04:07:03;95175.19;;;18.60;59.52
30682;BME280;17439;48.092;11.842;2023-05-23T04:09:30;95179.50;;;18.61;59.76
30682;BME280;17439;48.092;11.842;2023-05-23T04:11:58;95186.59;;;18.62;59.82
30682;BME280;17439;48.092;11.842;2023-05-23T04:14:26;95181.09;;;18.62;59.96
30682;BME280;17439;48.092;11.842;2023-05-23T04:16:54;95178.34;;;18.62;60.06
30682;BME280;17439;48.092;11.842;2023-05-23T04:19:21;95185.44;;;18.63;60.36
30682;BME280;17439;48.092;11.842;2023-05-23T04:21:50;95184.72;;;18.66;60.04
30682;BME280;17439;48.092;11.842;2023-05-23T04:24:17;95187.44;;;18.66;60.45
30682;BME280;17439;48.092;11.842;2023-05-23T04:26:45;95189.44;;;18.69;60.62
30682;BME280;17439;48.092;11.842;2023-05-23T04:29:11;95187.91;;;18.72;60.86
30682;BME280;17439;48.092;11.842;2023-05-23T04:31:38;95183.69;;;18.78;60.57
30682;BME280;17439;48.092;11.842;2023-05-23T04:34:05;95190.81;;;18.82;60.41
30682;BME280;17439;48.092;11.842;2023-05-23T04:36:36;95198.75;;;18.88;60.71
30682;BME280;17439;48.092;11.842;2023-05-23T04:39:04;95200.03;;;18.94;61.19
30682;BME280;17439;48.092;11.842;2023-05-23T04:41:35;95197.78;;;18.99;60.23
30682;BME280;17439;48.092;11.842;2023-05-23T04:44:07;95204.13;;;19.07;59.87
30682;BME280;17439;48.092;11.842;2023-05-23T04:46:38;95205.75;;;19.12;60.11
30682;BME280;17439;48.092;11.842;2023-05-23T04:49:21;95208.22;;;19.17;59.83
30682;BME280;17439;48.092;11.842;2023-05-23T04:51:49;95220.03;;;19.21;59.57
30682;BME280;17439;48.092;11.842;2023-05-23T04:54:19;95206.31;;;19.25;59.58
30682;BME280;17439;48.092;11.842;2023-05-23T04:56:46;95205.22;;;19.29;59.79
30682;BME280;17439;48.092;11.842;2023-05-23T04:59:16;95204.09;;;19.34;59.73
30682;BME280;17439;48.092;11.842;2023-05-23T05:01:43;95198.63;;;19.37;59.66
30682;BME280;17439;48.092;11.842;2023-05-23T05:04:11;95202.09;;;19.31;61.41
30682;BME280;17439;48.092;11.842;2023-05-23T05:06:39;95206.19;;;19.44;59.65
30682;BME280;17439;48.092;11.842;2023-05-23T05:09:07;95198.41;;;19.50;59.79
30682;BME280;17439;48.092;11.842;2023-05-23T05:11:34;95190.63;;;19.55;60.06
30682;BME280;17439;48.092;11.842;2023-05-23T05:14:01;95195.78;;;19.61;59.81
30682;BME280;17439;48.092;11.842;2023-05-23T05:16:28;95195.03;;;19.64;59.56
30682;BME280;17439;48.092;11.842;2023-05-23T05:18:55;95200.19;;;19.69;59.57
30682;BME280;17439;48.092;11.842;2023-05-23T05:21:22;95202.97;;;19.72;59.58
30682;BME280;17439;48.092;11.842;2023-05-23T05:23:49;95204.19;;;19.75;59.50
30682;BME280;17439;48.092;11.842;2023-05-23T05:26:16;95199.56;;;19.79;59.38
30682;BME280;17439;48.092;11.842;2023-05-23T05:28:43;95208.63;;;19.83;59.32
30682;BME280;17439;48.092;11.842;2023-05-23T05:31:10;95205.53;;;19.88;59.26
30682;BME280;17439;48.092;11.842;2023-05-23T05:33:38;95202.84;;;19.92;59.23
30682;BME280;17439;48.092;11.842;2023-05-23T05:36:11;95203.66;;;19.96;59.24
30682;BME280;17439;48.092;11.842;2023-05-23T05:38:38;95210.00;;;20.00;59.07
30682;BME280;17439;48.092;11.842;2023-05-23T05:41:05;95205.28;;;20.04;58.99
30682;BME280;17439;48.092;11.842;2023-05-23T05:43:38;95205.34;;;20.08;58.90
30682;BME280;17439;48.092;11.842;2023-05-23T05:46:05;95197.50;;;20.10;58.91
30682;BME280;17439;48.092;11.842;2023-05-23T05:48:32;95192.84;;;20.14;58.81
30682;BME280;17439;48.092;11.842;2023-05-23T05:51:04;95195.22;;;20.19;59.01
30682;BME280;17439;48.092;11.842;2023-05-23T05:53:32;95200.38;;;20.24;59.35
30682;BME280;17439;48.092;11.842;2023-05-23T05:55:59;95207.13;;;20.30;59.09
30682;BME280;17439;48.092;11.842;2023-05-23T05:58:27;95196.16;;;20.34;58.96
30682;BME280;17439;48.092;11.842;2023-05-23T06:01:00;95198.16;;;20.41;58.82
30682;BME280;17439;48.092;11.842;2023-05-23T06:03:27;95198.59;;;20.46;58.58
30682;BME280;17439;48.092;11.842;2023-05-23T06:05:54;95201.81;;;20.52;58.43
30682;BME280;17439;48.092;11.842;2023-05-23T06:08:21;95206.97;;;20.57;58.41
30682;BME280;17439;48.092;11.842;2023-05-23T06:10:48;95212.53;;;20.64;58.05
30682;BME280;17439;48.092;11.842;2023-05-23T06:13:15;95214.53;;;20.68;57.98
30682;BME280;17439;48.092;11.842;2023-05-23T06:15:46;95214.59;;;20.71;58.12
30682;BME280;17439;48.092;11.842;2023-05-23T06:18:13;95211.47;;;20.76;57.32
30682;BME280;17439;48.092;11.842;2023-05-23T06:20:39;95219.34;;;20.78;57.71
30682;BME280;17439;48.092;11.842;2023-05-23T06:23:11;95222.13;;;20.81;57.57
30682;BME280;17439;48.092;11.842;2023-05-23T06:25:39;95224.09;;;20.81;57.30
30682;BME280;17439;48.092;11.842;2023-05-23T06:28:05;95227.66;;;20.85;57.15
30682;BME280;17439;48.092;11.842;2023-05-23T06:30:32;95226.47;;;20.82;57.40
30682;BME280;17439;48.092;11.842;2023-05-23T06:32:59;95225.66;;;20.82;56.91
30682;BME280;17439;48.092;11.842;2023-05-23T06:35:25;95221.34;;;20.81;57.18
30682;BME280;17439;48.092;11.842;2023-05-23T06:37:52;95228.41;;;20.82;57.55
30682;BME280;17439;48.092;11.842;2023-05-23T06:40:19;95220.56;;;20.84;57.47
30682;BME280;17439;48.092;11.842;2023-05-23T06:42:46;95223.72;;;20.86;57.77
30682;BME280;17439;48.092;11.842;2023-05-23T06:45:22;95224.53;;;20.90;57.54
30682;BME280;17439;48.092;11.842;2023-05-23T06:47:49;95231.25;;;20.93;57.40
30682;BME280;17439;48.092;11.842;2023-05-23T06:50:17;95229.31;;;20.97;57.45
30682;BME280;17439;48.092;11.842;2023-05-23T06:52:43;95220.66;;;20.98;57.26
30682;BME280;17439;48.092;11.842;2023-05-23T06:55:10;95221.06;;;21.00;57.15
30682;BME280;17439;48.092;11.842;2023-05-23T06:57:38;95221.84;;;21.01;57.06
30682;BME280;17439;48.092;11.842;2023-05-23T07:00:05;95221.91;;;21.05;57.01
30682;BME280;17439;48.092;11.842;2023-05-23T07:02:38;95223.44;;;21.06;57.25
30682;BME280;17439;48.092;11.842;2023-05-23T07:05:05;95227.41;;;21.08;57.84
30682;BME280;17439;48.092;11.842;2023-05-23T07:07:50;95236.09;;;21.10;58.10
30682;BME280;17439;48.092;11.842;2023-05-23T07:10:18;95241.28;;;21.19;57.62
30682;BME280;17439;48.092;11.842;2023-05-23T07:12:46;95239.31;;;21.23;57.53
30682;BME280;17439;48.092;11.842;2023-05-23T07:15:15;95235.78;;;21.26;57.38
30682;BME280;17439;48.092;11.842;2023-05-23T07:18:03;95233.88;;;21.34;56.80
30682;BME280;17439;48.092;11.842;2023-05-23T07:20:34;95233.50;;;21.43;56.90
30682;BME280;17439;48.092;11.842;2023-05-23T07:23:09;95231.22;;;21.52;56.48
30682;BME280;17439;48.092;11.842;2023-05-23T07:25:37;95226.91;;;21.58;56.88
30682;BME280;17439;48.092;11.842;2023-05-23T07:28:18;95222.59;;;21.64;56.93
30682;BME280;17439;48.092;11.842;2023-05-23T07:30:45;95229.34;;;21.70;56.94
30682;BME280;17439;48.092;11.842;2023-05-23T07:33:12;95235.72;;;21.89;56.69
30682;BME280;17439;48.092;11.842;2023-05-23T07:35:43;95231.00;;;22.11;55.97
30682;BME280;17439;48.092;11.842;2023-05-23T07:38:09;95237.34;;;22.19;55.63
30682;BME280;17439;48.092;11.842;2023-05-23T07:40:36;95233.06;;;22.39;54.86
30682;BME280;17439;48.092;11.842;2023-05-23T07:43:03;95246.88;;;22.43;54.76
30682;BME280;17439;48.092;11.842;2023-05-23T07:45:31;95238.63;;;22.50;55.13
30682;BME280;17439;48.092;11.842;2023-05-23T07:47:59;95253.22;;;22.54;54.71
30682;BME280;17439;48.092;11.842;2023-05-23T07:50:27;95248.06;;;22.49;54.92
30682;BME280;17439;48.092;11.842;2023-05-23T07:52:53;95252.03;;;22.66;54.23
30682;BME280;17439;48.092;11.842;2023-05-23T07:55:26;95246.53;;;22.73;54.36
30682;BME280;17439;48.092;11.842;2023-05-23T07:57:53;95249.28;;;22.77;53.92
30682;BME280;17439;48.092;11.842;2023-05-23T08:00:20;95241.38;;;22.86;53.60
30682;BME280;17439;48.092;11.842;2023-05-23T08:02:53;95246.53;;;22.88;53.62
30682;BME280;17439;48.092;11.842;2023-05-23T08:05:25;95252.44;;;22.93;53.71
30682;BME280;17439;48.092;11.842;2023-05-23T08:07:55;95246.91;;;22.93;53.76
30682;BME280;17439;48.092;11.842;2023-05-23T08:10:23;95252.44;;;22.90;53.67
30682;BME280;17439;48.092;11.842;2023-05-23T08:12:51;95249.25;;;22.98;53.16
30682;BME280;17439;48.092;11.842;2023-05-23T08:15:18;95244.50;;;23.06;53.21
30682;BME280;17439;48.092;11.842;2023-05-23T08:17:50;95249.69;;;23.08;53.10
30682;BME280;17439;48.092;11.842;2023-05-23T08:20:17;95249.66;;;23.11;53.45
30682;BME280;17439;48.092;11.842;2023-05-23T08:22:44;95256.38;;;23.17;52.65
30682;BME280;17439;48.092;11.842;2023-05-23T08:25:11;95258.75;;;23.19;52.36
30682;BME280;17439;48.092;11.842;2023-05-23T08:27:39;95265.84;;;23.06;52.49
30682;BME280;17439;48.092;11.842;2023-05-23T08:30:28;95269.03;;;23.18;52.68
30682;BME280;17439;48.092;11.842;2023-05-23T08:32:55;95272.16;;;23.21;52.71
30682;BME280;17439;48.092;11.842;2023-05-23T08:35:22;95251.63;;;23.22;52.65
30682;BME280;17439;48.092;11.842;2023-05-23T08:37:50;95267.44;;;23.25;53.23
30682;BME280;17439;48.092;11.842;2023-05-23T08:40:21;95258.75;;;23.26;52.57
30682;BME280;17439;48.092;11.842;2023-05-23T08:43:01;95266.22;;;23.33;52.42
30682;BME280;17439;48.092;11.842;2023-05-23T08:45:29;95272.94;;;23.32;52.63
30682;BME280;17439;48.092;11.842;2023-05-23T08:47:58;95272.16;;;23.28;52.81
30682;BME280;17439;48.092;11.842;2023-05-23T08:50:27;95270.53;;;23.45;52.09
30682;BME280;17439;48.092;11.842;2023-05-23T08:52:58;95269.34;;;23.49;51.87
30682;BME280;17439;48.092;11.842;2023-05-23T08:55:27;95274.06;;;23.52;51.83
30682;BME280;17439;48.092;11.842;2023-05-23T08:57:57;95278.41;;;23.57;52.16
30682;BME280;17439;48.092;11.842;2023-05-23T09:00:51;95276.03;;;23.63;51.99
30682;BME280;17439;48.092;11.842;2023-05-23T09:03:19;95268.91;;;23.69;51.38
30682;BME280;17439;48.092;11.842;2023-05-23T09:06:10;95272.06;;;23.71;51.37
30682;BME280;17439;48.092;11.842;2023-05-23T09:08:38;95276.81;;;23.70;51.74
30682;BME280;17439;48.092;11.842;2023-05-23T09:11:05;95274.81;;;23.75;51.20
30682;BME280;17439;48.092;11.842;2023-05-23T09:13:35;95274.03;;;23.74;51.31
30682;BME280;17439;48.092;11.842;2023-05-23T09:16:09;95266.47;;;23.78;51.17
30682;BME280;17439;48.092;11.842;2023-05-23T09:18:42;95269.25;;;23.82;50.44
30682;BME280;17439;48.092;11.842;2023-05-23T09:21:13;95273.22;;;23.84;50.50
30682;BME280;17439;48.092;11.842;2023-05-23T09:23:57;95282.31;;;23.85;50.48
30682;BME280;17439;48.092;11.842;2023-05-23T09:26:25;95280.72;;;23.80;50.56
30682;BME280;17439;48.092;11.842;2023-05-23T09:28:56;95279.53;;;23.78;50.39
30682;BME280;17439;48.092;11.842;2023-05-23T09:31:25;95286.28;;;23.77;50.66
30682;BME280;17439;48.092;11.842;2023-05-23T09:33:52;95279.97;;;23.72;50.34
30682;BME280;17439;48.092;11.842;2023-05-23T09:36:19;95283.09;;;23.75;50.57
30682;BME280;17439;48.092;11.842;2023-05-23T09:38:46;95287.84;;;23.74;50.67
30682;BME280;17439;48.092;11.842;2023-05-23T09:41:13;95273.25;;;23.73;50.67
30682;BME280;17439;48.092;11.842;2023-05-23T09:43:50;95274.00;;;23.78;50.32
30682;BME280;17439;48.092;11.842;2023-05-23T09:46:19;95286.66;;;23.82;50.28
30682;BME280;17439;48.092;11.842;2023-05-23T09:51:18;95281.50;;;23.81;50.08
30682;BME280;17439;48.092;11.842;2023-05-23T09:56:12;95287.03;;;23.81;50.55
30682;BME280;17439;48.092;11.842;2023-05-23T09:58:45;95281.88;;;23.83;50.43
30682;BME280;17439;48.092;11.842;2023-05-23T10:01:13;95276.78;;;23.85;50.30
30682;BME280;17439;48.092;11.842;2023-05-23T10:03:50;95280.75;;;23.73;49.87
30682;BME280;17439;48.092;11.842;2023-05-23T10:06:49;95274.03;;;23.85;50.19
30682;BME280;17439;48.092;11.842;2023-05-23T10:09:18;95275.16;;;23.95;49.40
30682;BME280;17439;48.092;11.842;2023-05-23T10:14:53;95277.13;;;23.98;48.85
30682;BME280;17439;48.092;11.842;2023-05-23T10:18:11;95266.44;;;24.00;48.92
30682;BME280;17439;48.092;11.842;2023-05-23T10:20:15;95263.25;;;24.05;49.31
30682;BME280;17439;48.092;11.842;2023-05-23T10:22:42;95259.66;;;24.08;49.69
30682;BME280;17439;48.092;11.842;2023-05-23T10:25:09;95264.78;;;24.13;49.42
30682;BME280;17439;48.092;11.842;2023-05-23T10:27:39;95256.91;;;24.08;48.51
30682;BME280;17439;48.092;11.842;2023-05-23T10:30:07;95264.72;;;24.24;48.82
30682;BME280;17439;48.092;11.842;2023-05-23T10:32:34;95260.75;;;24.29;48.49
30682;BME280;17439;48.092;11.842;2023-05-23T10:35:41;95269.50;;;24.20;48.74
30682;BME280;17439;48.092;11.842;2023-05-23T10:38:31;95253.22;;;24.29;48.56
30682;BME280;17439;48.092;11.842;2023-05-23T10:41:08;95253.22;;;24.33;48.80
30682;BME280;17439;48.092;11.842;2023-05-23T10:46:08;95257.94;;;24.36;48.83
30682;BME280;17439;48.092;11.842;2023-05-23T10:48:40;95268.59;;;24.41;48.31
30682;BME280;17439;48.092;11.842;2023-05-23T10:51:09;95267.75;;;24.48;48.97
30682;BME280;17439;48.092;11.842;2023-05-23T10:53:41;95270.13;;;24.49;48.66
30682;BME280;17439;48.092;11.842;2023-05-23T10:56:10;95273.66;;;24.53;47.90
30682;BME280;17439;48.092;11.842;2023-05-23T10:58:38;95271.28;;;24.52;48.07
30682;BME280;17439;48.092;11.842;2023-05-23T11:01:12;95280.78;;;24.51;47.80
30682;BME280;17439;48.092;11.842;2023-05-23T11:06:40;95276.53;;;24.39;47.93
30682;BME280;17439;48.092;11.842;2023-05-23T11:09:15;95263.09;;;24.37;47.93
30682;BME280;17439;48.092;11.842;2023-05-23T11:12:00;95256.78;;;24.30;48.38
30682;BME280;17439;48.092;11.842;2023-05-23T11:19:38;95252.69;;;24.59;47.52
30682;BME280;17439;48.092;11.842;2023-05-23T11:22:08;95245.06;;;24.67;47.78
30682;BME280;17439;48.092;11.842;2023-05-23T11:30:05;95268.47;;;24.66;45.77
30682;BME280;17439;48.092;11.842;2023-05-23T11:32:33;95262.91;;;24.66;46.07
30682;BME280;17439;48.092;11.842;2023-05-23T11:35:02;95245.53;;;24.58;45.67
30682;BME280;17439;48.092;11.842;2023-05-23T11:37:30;95238.78;;;24.56;46.21
30682;BME280;17439;48.092;11.842;2023-05-23T11:39:57;95232.50;;;24.48;46.29
30682;BME280;17439;48.092;11.842;2023-05-23T11:42:24;95224.16;;;24.55;45.45
30682;BME280;17439;48.092;11.842;2023-05-23T11:44:51;95234.47;;;24.58;45.46
30682;BME280;17439;48.092;11.842;2023-05-23T11:47:18;95225.00;;;24.49;46.56
30682;BME280;17439;48.092;11.842;2023-05-23T11:49:45;95235.28;;;24.48;45.91
30682;BME280;17439;48.092;11.842;2023-05-23T11:52:12;95224.97;;;24.52;46.60
30682;BME280;17439;48.092;11.842;2023-05-23T11:54:42;95243.19;;;24.57;47.12
30682;BME280;17439;48.092;11.842;2023-05-23T11:57:10;95240.75;;;24.66;46.93
30682;BME280;17439;48.092;11.842;2023-05-23T11:59:37;95237.03;;;24.84;45.34
30682;BME280;17439;48.092;11.842;2023-05-23T12:02:05;95248.88;;;24.91;44.34
30682;BME280;17439;48.092;11.842;2023-05-23T12:04:33;95238.13;;;24.93;44.81
30682;BME280;17439;48.092;11.842;2023-05-23T12:07:03;95238.47;;;25.03;44.22
30682;BME280;17439;48.092;11.842;2023-05-23T12:09:30;95243.19;;;25.06;43.90
30682;BME280;17439;48.092;11.842;2023-05-23T12:11:57;95243.09;;;25.13;44.08
30682;BME280;17439;48.092;11.842;2023-05-23T12:14:27;95236.38;;;25.14;43.91
30682;BME280;17439;48.092;11.842;2023-05-23T12:16:54;95230.75;;;25.21;44.27
30682;BME280;17439;48.092;11.842;2023-05-23T12:19:21;95238.25;;;25.28;45.17
30682;BME280;17439;48.092;11.842;2023-05-23T12:21:48;95236.16;;;25.35;43.71
30682;BME280;17439;48.092;11.842;2023-05-23T12:26:50;95232.97;;;25.41;43.26
30682;BME280;17439;48.092;11.842;2023-05-23T12:29:18;95236.78;;;25.54;42.95
30682;BME280;17439;48.092;11.842;2023-05-23T12:31:49;95231.59;;;25.56;42.92
30682;BME280;17439;48.092;11.842;2023-05-23T12:34:16;95231.16;;;25.61;43.22
30682;BME280;17439;48.092;11.842;2023-05-23T12:36:43;95235.78;;;25.71;42.03
30682;BME280;17439;48.092;11.842;2023-05-23T12:39:15;95231.84;;;25.69;42.54
30682;BME280;17439;48.092;11.842;2023-05-23T12:41:42;95228.75;;;25.63;42.95
30682;BME280;17439;48.092;11.842;2023-05-23T12:44:08;95233.19;;;25.57;42.90
30682;BME280;17439;48.092;11.842;2023-05-23T12:46:35;95228.09;;;25.52;42.89
30682;BME280;17439;48.092;11.842;2023-05-23T12:49:02;95232.81;;;25.51;43.20
30682;BME280;17439;48.092;11.842;2023-05-23T12:51:29;95219.38;;;25.50;43.14
30682;BME280;17439;48.092;11.842;2023-05-23T12:53:56;95222.50;;;25.56;43.52
30682;BME280;17439;48.092;11.842;2023-05-23T12:56:22;95218.94;;;25.55;43.03
30682;BME280;17439;48.092;11.842;2023-05-23T12:58:49;95233.53;;;25.59;42.61
30682;BME280;17439;48.092;11.842;2023-05-23T13:01:16;95224.03;;;25.60;42.72
30682;BME280;17439;48.092;11.842;2023-05-23T13:03:42;95224.34;;;25.66;42.32
30682;BME280;17439;48.092;11.842;2023-05-23T13:06:09;95233.47;;;25.66;42.84
30682;BME280;17439;48.092;11.842;2023-05-23T13:08:36;95233.47;;;25.66;42.94
30682;BME280;17439;48.092;11.842;2023-05-23T13:11:03;95222.38;;;25.66;43.40
30682;BME280;17439;48.092;11.842;2023-05-23T13:13:30;95230.28;;;25.68;42.78
30682;BME280;17439;48.092;11.842;2023-05-23T13:15:57;95230.59;;;25.74;42.66
30682;BME280;17439;48.092;11.842;2023-05-23T13:18:24;95237.38;;;25.73;42.99
30682;BME280;17439;48.092;11.842;2023-05-23T13:20:51;95233.47;;;25.66;43.86
30682;BME280;17439;48.092;11.842;2023-05-23T13:23:18;95237.13;;;25.56;44.15
30682;BME280;17439;48.092;11.842;2023-05-23T13:25:45;95227.00;;;25.42;44.12
30682;BME280;17439;48.092;11.842;2023-05-23T13:28:12;95223.16;;;25.29;45.13
30682;BME280;17439;48.092;11.842;2023-05-23T13:30:38;95225.97;;;25.25;44.21
30682;BME280;17439;48.092;11.842;2023-05-23T13:33:05;95226.38;;;25.24;44.54